createdAt,value
2023-03-27T00:01:18.487Z,101236.63
2023-03-27T00:03:49.564Z,101248.25
2023-03-27T00:06:17.943Z,101254.06
2023-03-27T00:08:46.919Z,101261.22
2023-03-27T00:11:15.002Z,101257.28
2023-03-27T00:13:49.353Z,101256.75
2023-03-27T00:16:19.032Z,101265.53
2023-03-27T00:18:46.820Z,101275.81
2023-03-27T00:21:14.220Z,101272.31
2023-03-27T00:23:42.466Z,101275.50
2023-03-27T00:26:10.067Z,101287.22
2023-03-27T00:28:37.119Z,101301.00
2023-03-27T00:31:04.195Z,101290.75
2023-03-27T00:33:31.237Z,101295.59
2023-03-27T00:35:58.174Z,101299.00
2023-03-27T00:38:24.973Z,101305.88
2023-03-27T00:40:54.730Z,101310.06
2023-03-27T00:43:34.353Z,101316.47
2023-03-27T00:46:15.504Z,101329.56
2023-03-27T00:48:47.263Z,101331.16
2023-03-27T00:51:16.731Z,101321.78
2023-03-27T00:53:45.281Z,101331.56
2023-03-27T00:56:13.416Z,101333.03
2023-03-27T00:58:44.838Z,101323.06
2023-03-27T01:01:15.250Z,101334.03
2023-03-27T01:03:45.548Z,101322.75
2023-03-27T01:06:14.864Z,101317.59
2023-03-27T01:08:43.939Z,101315.50
2023-03-27T01:11:26.907Z,101312.94
2023-03-27T01:14:30.515Z,101306.81
2023-03-27T01:17:13.969Z,101307.50
2023-03-27T01:19:55.955Z,101310.09
2023-03-27T01:22:52.685Z,101306.59
2023-03-27T01:25:37.953Z,101307.63
2023-03-27T01:28:10.739Z,101292.78
2023-03-27T01:30:44.952Z,101298.22
2023-03-27T01:33:33.193Z,101292.16
2023-03-27T01:36:19.826Z,101294.09
2023-03-27T01:39:17.768Z,101277.38
2023-03-27T01:42:03.950Z,101286.81
2023-03-27T01:44:47.288Z,101280.44
2023-03-27T01:47:31.275Z,101276.50
2023-03-27T01:50:06.622Z,101280.63
2023-03-27T01:52:38.425Z,101270.50
2023-03-27T01:55:09.870Z,101265.59
2023-03-27T01:57:49.694Z,101273.34
2023-03-27T02:00:22.630Z,101263.84
2023-03-27T02:03:09.359Z,101263.97
2023-03-27T02:05:44.841Z,101266.91
2023-03-27T02:08:17.346Z,101270.91
2023-03-27T02:10:50.031Z,101275.53
2023-03-27T02:13:21.653Z,101280.31
2023-03-27T02:15:51.610Z,101285.50
2023-03-27T02:18:26.424Z,101291.47
2023-03-27T02:20:53.661Z,101284.03
2023-03-27T02:23:23.068Z,101293.97
2023-03-27T02:25:51.451Z,101290.09
2023-03-27T02:28:49.248Z,101289.38
2023-03-27T02:31:35.164Z,101291.38
2023-03-27T02:34:21.249Z,101312.13
2023-03-27T02:37:19.323Z,101318.00
2023-03-27T02:40:31.044Z,101324.66
2023-03-27T02:43:17.671Z,101331.00
2023-03-27T02:46:00.832Z,101340.13
2023-03-27T02:48:35.411Z,101337.28
2023-03-27T02:51:13.258Z,101339.31
2023-03-27T02:53:46.814Z,101348.50
2023-03-27T02:56:16.456Z,101356.16
2023-03-27T02:58:50.185Z,101351.81
2023-03-27T03:01:39.316Z,101352.56
2023-03-27T03:04:34.380Z,101359.38
2023-03-27T03:07:18.707Z,101363.00
2023-03-27T03:09:45.955Z,101363.91
2023-03-27T03:12:12.836Z,101365.69
2023-03-27T03:14:46.620Z,101363.63
2023-03-27T03:17:16.082Z,101369.72
2023-03-27T03:19:42.883Z,101368.63
2023-03-27T03:22:10.024Z,101367.81
2023-03-27T03:24:41.993Z,101364.31
2023-03-27T03:27:10.866Z,101369.84
2023-03-27T03:29:57.878Z,101372.56
2023-03-27T03:32:27.962Z,101374.31
2023-03-27T03:34:57.031Z,101376.59
2023-03-27T03:37:28.739Z,101378.91
2023-03-27T03:39:58.132Z,101388.09
2023-03-27T03:42:24.898Z,101385.50
2023-03-27T03:44:52.914Z,101384.22
2023-03-27T03:47:21.945Z,101389.03
2023-03-27T03:49:49.389Z,101403.31
2023-03-27T03:52:16.308Z,101395.13
2023-03-27T03:54:44.310Z,101400.56
2023-03-27T03:57:12.620Z,101398.50
2023-03-27T03:59:39.889Z,101396.69
2023-03-27T04:02:30.186Z,101400.38
2023-03-27T04:05:09.398Z,101394.81
2023-03-27T04:07:40.084Z,101393.16
2023-03-27T04:10:30.264Z,101390.41
2023-03-27T04:12:59.516Z,101392.38
2023-03-27T04:15:29.365Z,101403.88
2023-03-27T04:18:33.178Z,101408.34
2023-03-27T04:21:04.153Z,101406.47
2023-03-27T04:23:30.992Z,101400.94
2023-03-27T04:26:00.473Z,101411.94
2023-03-27T04:28:37.276Z,101407.63
2023-03-27T04:31:23.721Z,101405.97
2023-03-27T04:34:25.755Z,101415.91
2023-03-27T04:37:10.797Z,101420.13
2023-03-27T04:39:46.408Z,101401.81
2023-03-27T04:42:16.715Z,101405.09
2023-03-27T04:44:46.087Z,101406.91
2023-03-27T04:47:13.055Z,101404.97
2023-03-27T04:49:46.851Z,101407.00
2023-03-27T04:52:26.239Z,101401.84
2023-03-27T04:54:53.156Z,101398.00
2023-03-27T04:57:22.516Z,101410.75
2023-03-27T04:59:50.337Z,101412.13
2023-03-27T05:02:35.577Z,101418.03
2023-03-27T05:05:21.114Z,101411.06
2023-03-27T05:07:50.195Z,101422.38
2023-03-27T05:10:21.758Z,101410.94
2023-03-27T05:12:52.655Z,101427.78
2023-03-27T05:15:21.140Z,101412.50
2023-03-27T05:17:55.071Z,101419.84
2023-03-27T05:20:25.361Z,101421.72
2023-03-27T05:22:56.552Z,101428.19
2023-03-27T05:25:29.068Z,101415.38
2023-03-27T05:27:57.077Z,101428.03
2023-03-27T05:30:29.055Z,101424.38
2023-03-27T05:33:17.616Z,101424.72
2023-03-27T05:35:48.264Z,101426.22
2023-03-27T05:38:15.987Z,101431.22
2023-03-27T05:41:04.044Z,101437.59
2023-03-27T05:43:34.134Z,101424.56
2023-03-27T05:46:01.638Z,101421.59
2023-03-27T05:48:28.973Z,101426.41
2023-03-27T05:51:00.784Z,101428.38
2023-03-27T05:53:27.722Z,101435.22
2023-03-27T05:56:14.034Z,101439.03
2023-03-27T05:58:56.759Z,101451.03
2023-03-27T06:01:25.886Z,101462.53
2023-03-27T06:03:56.244Z,101470.19
2023-03-27T06:06:35.693Z,101487.84
2023-03-27T06:09:03.797Z,101503.94
2023-03-27T06:11:30.856Z,101502.09
2023-03-27T06:13:58.805Z,101509.34
2023-03-27T06:16:40.874Z,101512.31
2023-03-27T06:19:26.174Z,101514.13
2023-03-27T06:21:53.204Z,101527.97
2023-03-27T06:24:20.064Z,101531.47
2023-03-27T06:26:47.466Z,101531.25
2023-03-27T06:29:14.244Z,101536.94
2023-03-27T06:31:46.760Z,101549.13
2023-03-27T06:34:24.569Z,101538.50
2023-03-27T06:36:56.212Z,101538.72
2023-03-27T06:39:23.124Z,101540.31
2023-03-27T06:41:52.150Z,101535.34
2023-03-27T06:44:34.643Z,101534.75
2023-03-27T06:47:24.224Z,101538.78
2023-03-27T06:50:18.211Z,101545.69
2023-03-27T06:52:45.489Z,101554.00
2023-03-27T06:55:41.754Z,101569.06
2023-03-27T06:58:09.082Z,101572.59
2023-03-27T07:00:37.429Z,101574.88
2023-03-27T07:03:21.417Z,101573.00
2023-03-27T07:06:11.610Z,101586.72
2023-03-27T07:08:47.724Z,101588.94
2023-03-27T07:11:16.017Z,101584.59
2023-03-27T07:13:54.345Z,101572.66
2023-03-27T07:16:25.527Z,101571.50
2023-03-27T07:18:52.561Z,101569.56
2023-03-27T07:21:20.899Z,101583.75
2023-03-27T07:23:47.735Z,101587.22
2023-03-27T07:26:19.386Z,101597.31
2023-03-27T07:29:01.046Z,101597.19
2023-03-27T07:31:50.956Z,101599.06
2023-03-27T07:34:16.089Z,101614.47
2023-03-27T07:37:16.089Z,101609.31
2023-03-27T07:40:08.970Z,101597.41
2023-03-27T07:42:39.577Z,101595.91
2023-03-27T07:45:16.406Z,101597.94
2023-03-27T07:47:46.117Z,101590.09
2023-03-27T07:50:15.762Z,101594.72
2023-03-27T07:52:46.103Z,101595.34
2023-03-27T07:55:17.425Z,101604.69
2023-03-27T07:58:01.720Z,101609.03
2023-03-27T08:00:35.293Z,101608.63
2023-03-27T08:03:14.462Z,101612.81
2023-03-27T08:05:59.064Z,101606.94
2023-03-27T08:08:29.026Z,101612.91
2023-03-27T08:10:59.637Z,101613.03
2023-03-27T08:13:32.174Z,101610.25
2023-03-27T08:16:17.612Z,101623.19
2023-03-27T08:18:46.898Z,101637.50
2023-03-27T08:21:14.497Z,101643.88
2023-03-27T08:23:41.606Z,101649.75
2023-03-27T08:26:09.232Z,101649.19
2023-03-27T08:28:47.981Z,101640.66
2023-03-27T08:31:16.313Z,101644.53
2023-03-27T08:33:44.666Z,101641.06
2023-03-27T08:36:20.041Z,101645.97
2023-03-27T08:38:47.065Z,101651.25
2023-03-27T08:41:30.740Z,101654.47
2023-03-27T08:44:15.803Z,101654.97
2023-03-27T08:46:46.856Z,101662.69
2023-03-27T08:49:18.486Z,101662.72
2023-03-27T08:52:16.505Z,101658.72
2023-03-27T08:55:09.788Z,101670.09
2023-03-27T08:57:43.886Z,101664.91
2023-03-27T09:00:25.212Z,101662.22
2023-03-27T09:03:21.242Z,101662.03
2023-03-27T09:05:57.808Z,101671.38
2023-03-27T09:08:47.005Z,101669.31
2023-03-27T09:11:24.117Z,101681.94
2023-03-27T09:13:57.290Z,101685.09
2023-03-27T09:16:49.297Z,101686.28
2023-03-27T09:19:46.346Z,101691.34
2023-03-27T09:22:29.068Z,101683.88
2023-03-27T09:25:27.572Z,101691.94
2023-03-27T09:28:42.659Z,101700.22
2023-03-27T09:31:27.710Z,101705.16
2023-03-27T09:33:57.982Z,101717.72
2023-03-27T09:36:24.832Z,101722.16
2023-03-27T09:38:58.711Z,101727.00
2023-03-27T09:41:43.759Z,101717.44
2023-03-27T09:44:18.020Z,101726.22
2023-03-27T09:46:48.983Z,101729.06
2023-03-27T09:49:20.970Z,101740.00
2023-03-27T09:51:59.483Z,101743.19
2023-03-27T09:54:52.878Z,101739.56
2023-03-27T09:57:28.542Z,101736.16
2023-03-27T09:59:58.776Z,101738.63
2023-03-27T10:02:29.529Z,101743.50
2023-03-27T10:05:22.149Z,101738.13
2023-03-27T10:07:54.279Z,101739.53
2023-03-27T10:10:45.812Z,101739.03
2023-03-27T10:13:31.270Z,101731.59
2023-03-27T10:16:02.003Z,101740.94
2023-03-27T10:18:43.451Z,101739.91
2023-03-27T10:21:24.225Z,101738.81
2023-03-27T10:23:51.599Z,101751.16
2023-03-27T10:26:37.071Z,101744.38
2023-03-27T10:29:22.235Z,101755.94
2023-03-27T10:32:00.499Z,101753.09
2023-03-27T10:34:57.361Z,101748.88
2023-03-27T10:37:50.300Z,101762.22
2023-03-27T10:40:50.112Z,101755.78
2023-03-27T10:43:33.737Z,101756.53
2023-03-27T10:46:08.888Z,101763.63
2023-03-27T10:48:54.830Z,101761.16
2023-03-27T10:52:02.055Z,101770.75
2023-03-27T10:55:05.253Z,101769.03
2023-03-27T10:57:38.139Z,101772.94
2023-03-27T11:00:21.177Z,101771.06
2023-03-27T11:03:03.681Z,101771.66
2023-03-27T11:05:40.137Z,101763.06
2023-03-27T11:08:28.045Z,101762.81
2023-03-27T11:11:02.351Z,101774.59
2023-03-27T11:13:37.038Z,101769.25
2023-03-27T11:16:29.062Z,101776.69
2023-03-27T11:19:10.799Z,101768.00
2023-03-27T11:22:22.286Z,101766.94
2023-03-27T11:25:02.936Z,101773.44
2023-03-27T11:27:41.213Z,101768.56
2023-03-27T11:30:14.568Z,101765.34
2023-03-27T11:33:12.625Z,101772.28
2023-03-27T11:35:48.722Z,101772.75
2023-03-27T11:38:38.726Z,101768.22
2023-03-27T11:41:08.131Z,101765.41
2023-03-27T11:43:38.235Z,101773.75
2023-03-27T11:46:13.479Z,101771.19
2023-03-27T11:48:52.590Z,101784.13
2023-03-27T11:51:41.818Z,101788.91
2023-03-27T11:54:29.825Z,101774.69
2023-03-27T11:57:10.835Z,101782.91
2023-03-27T12:00:05.250Z,101784.75
2023-03-27T12:02:59.685Z,101798.81
2023-03-27T12:05:55.291Z,101800.63
2023-03-27T12:08:51.137Z,101795.50
2023-03-27T12:11:20.555Z,101794.84
2023-03-27T12:14:05.502Z,101795.41
2023-03-27T12:16:52.773Z,101797.66
2023-03-27T12:19:38.234Z,101792.28
2023-03-27T12:23:03.516Z,101799.59
2023-03-27T12:25:55.650Z,101804.94
2023-03-27T12:28:55.945Z,101797.81
2023-03-27T12:32:05.353Z,101792.31
2023-03-27T12:34:41.096Z,101792.00
2023-03-27T12:37:13.352Z,101793.72
2023-03-27T12:39:53.616Z,101788.94
2023-03-27T12:42:44.077Z,101779.97
2023-03-27T12:45:18.280Z,101788.94
2023-03-27T12:48:10.067Z,101784.34
2023-03-27T12:50:51.691Z,101788.75
2023-03-27T12:53:25.537Z,101784.34
2023-03-27T12:56:16.377Z,101782.47
2023-03-27T12:58:47.873Z,101772.72
2023-03-27T13:01:51.744Z,101776.09
2023-03-27T13:04:54.981Z,101784.47
2023-03-27T13:07:52.778Z,101785.81
2023-03-27T13:10:44.631Z,101781.22
2023-03-27T13:13:32.520Z,101787.22
2023-03-27T13:16:11.969Z,101778.72
2023-03-27T13:18:59.026Z,101782.72
2023-03-27T13:21:37.864Z,101788.25
2023-03-27T13:24:23.762Z,101788.13
2023-03-27T13:27:14.265Z,101775.31
2023-03-27T13:29:41.706Z,101775.38
2023-03-27T13:32:31.032Z,101780.13
2023-03-27T13:35:24.860Z,101773.50
2023-03-27T13:37:54.047Z,101764.66
2023-03-27T13:40:38.772Z,101762.22
2023-03-27T13:43:26.128Z,101770.09
2023-03-27T13:46:05.404Z,101782.66
2023-03-27T13:48:55.734Z,101776.00
2023-03-27T13:51:48.230Z,101772.22
2023-03-27T13:54:28.006Z,101769.63
2023-03-27T13:57:05.542Z,101758.94
2023-03-27T13:59:58.446Z,101755.59
2023-03-27T14:03:12.615Z,101754.00
2023-03-27T14:06:27.918Z,101770.56
2023-03-27T14:09:00.186Z,101775.84
2023-03-27T14:12:13.047Z,101775.22
2023-03-27T14:15:12.845Z,101774.03
2023-03-27T14:18:05.317Z,101767.97
2023-03-27T14:20:49.188Z,101774.53
2023-03-27T14:23:25.741Z,101759.91
2023-03-27T14:26:21.501Z,101775.78
2023-03-27T14:28:58.867Z,101774.19
2023-03-27T14:31:35.460Z,101764.91
2023-03-27T14:34:12.249Z,101764.81
2023-03-27T14:36:47.585Z,101780.28
2023-03-27T14:39:28.454Z,101777.81
2023-03-27T14:42:03.620Z,101778.75
2023-03-27T14:44:34.366Z,101772.59
2023-03-27T14:47:13.632Z,101772.09
2023-03-27T14:49:49.297Z,101767.59
2023-03-27T14:52:35.272Z,101764.28
2023-03-27T14:55:26.983Z,101762.84
2023-03-27T14:58:18.631Z,101768.53
2023-03-27T15:00:57.952Z,101766.69
2023-03-27T15:03:30.923Z,101766.53
2023-03-27T15:06:21.168Z,101761.38
2023-03-27T15:08:55.997Z,101757.06
2023-03-27T15:11:55.531Z,101764.22
2023-03-27T15:14:30.433Z,101758.06
2023-03-27T15:17:03.078Z,101747.72
2023-03-27T15:19:45.431Z,101750.03
2023-03-27T15:22:31.439Z,101761.44
2023-03-27T15:25:28.762Z,101769.88
2023-03-27T15:27:59.027Z,101757.94
2023-03-27T15:30:33.985Z,101760.03
2023-03-27T15:33:02.318Z,101753.94
2023-03-27T15:35:36.096Z,101764.44
2023-03-27T15:38:06.369Z,101751.44
2023-03-27T15:40:40.249Z,101745.25
2023-03-27T15:43:08.997Z,101761.00
2023-03-27T15:45:58.321Z,101757.53
2023-03-27T15:48:32.353Z,101754.59
2023-03-27T15:51:09.619Z,101751.22
2023-03-27T15:53:42.528Z,101755.34
2023-03-27T15:56:48.145Z,101751.69
2023-03-27T15:59:16.519Z,101760.44
2023-03-27T16:01:53.710Z,101756.00
2023-03-27T16:04:25.775Z,101764.69
2023-03-27T16:07:24.811Z,101763.13
2023-03-27T16:10:02.495Z,101767.09
2023-03-27T16:12:47.985Z,101767.25
2023-03-27T16:15:36.553Z,101767.13
2023-03-27T16:18:29.978Z,101764.69
2023-03-27T16:21:13.196Z,101773.69
2023-03-27T16:23:40.790Z,101773.09
2023-03-27T16:26:12.656Z,101779.81
2023-03-27T16:28:41.001Z,101772.25
2023-03-27T16:31:16.586Z,101778.81
2023-03-27T16:33:45.294Z,101783.13
2023-03-27T16:36:15.266Z,101787.91
2023-03-27T16:38:43.765Z,101789.19
2023-03-27T16:41:13.358Z,101789.53
2023-03-27T16:43:40.536Z,101788.94
2023-03-27T16:46:16.962Z,101797.59
2023-03-27T16:48:43.810Z,101802.16
2023-03-27T16:51:13.217Z,101808.06
2023-03-27T16:53:39.914Z,101805.44
2023-03-27T16:56:07.240Z,101809.19
2023-03-27T16:58:34.017Z,101809.88
2023-03-27T17:01:01.061Z,101797.22
2023-03-27T17:03:27.881Z,101816.31
2023-03-27T17:06:00.000Z,101810.13
2023-03-27T17:08:27.329Z,101810.75
2023-03-27T17:10:54.045Z,101807.66
2023-03-27T17:13:21.247Z,101815.97
2023-03-27T17:15:50.192Z,101816.44
2023-03-27T17:18:16.994Z,101824.06
2023-03-27T17:20:43.913Z,101828.41
2023-03-27T17:23:11.893Z,101840.56
2023-03-27T17:25:38.573Z,101833.31
2023-03-27T17:28:07.103Z,101836.47
2023-03-27T17:30:39.754Z,101831.22
2023-03-27T17:33:12.904Z,101821.63
2023-03-27T17:35:40.815Z,101832.25
2023-03-27T17:38:08.926Z,101833.16
2023-03-27T17:40:39.525Z,101850.03
2023-03-27T17:43:06.549Z,101858.94
2023-03-27T17:45:33.338Z,101859.81
2023-03-27T17:48:00.257Z,101861.88
2023-03-27T17:50:27.060Z,101862.38
2023-03-27T17:52:53.859Z,101877.13
2023-03-27T17:55:20.649Z,101877.69
2023-03-27T17:57:53.114Z,101883.41
2023-03-27T18:00:26.072Z,101879.09
2023-03-27T18:02:52.953Z,101893.34
2023-03-27T18:05:22.870Z,101903.53
2023-03-27T18:07:49.632Z,101894.72
2023-03-27T18:10:21.204Z,101896.38
2023-03-27T18:12:48.300Z,101902.03
2023-03-27T18:15:15.238Z,101907.03
2023-03-27T18:17:41.993Z,101902.59
2023-03-27T18:20:10.280Z,101910.16
2023-03-27T18:22:38.296Z,101915.81
2023-03-27T18:25:06.817Z,101917.75
2023-03-27T18:27:33.590Z,101916.97
2023-03-27T18:30:01.593Z,101925.78
2023-03-27T18:32:28.451Z,101933.66
2023-03-27T18:34:55.519Z,101934.41
2023-03-27T18:37:22.414Z,101942.66
2023-03-27T18:39:49.121Z,101950.44
2023-03-27T18:42:15.845Z,101941.31
2023-03-27T18:44:42.641Z,101946.44
2023-03-27T18:47:09.401Z,101944.47
2023-03-27T18:49:37.787Z,101960.56
2023-03-27T18:52:04.888Z,101963.94
2023-03-27T18:54:31.708Z,101960.66
2023-03-27T18:56:58.488Z,101967.69
2023-03-27T18:59:25.478Z,101975.28
2023-03-27T19:01:52.423Z,101971.47
2023-03-27T19:04:19.288Z,101970.00
2023-03-27T19:06:46.820Z,101978.16
2023-03-27T19:09:14.451Z,101972.56
2023-03-27T19:11:41.706Z,101976.63
2023-03-27T19:14:27.930Z,101974.16
2023-03-27T19:17:21.139Z,101980.41
2023-03-27T19:20:10.984Z,101988.09
2023-03-27T19:22:50.473Z,101993.44
2023-03-27T19:25:27.666Z,101983.91
2023-03-27T19:27:54.689Z,102001.69
2023-03-27T19:30:21.629Z,102011.03
2023-03-27T19:32:50.218Z,102004.34
2023-03-27T19:35:17.207Z,102010.56
2023-03-27T19:37:44.075Z,102013.03
2023-03-27T19:40:11.482Z,102010.00
2023-03-27T19:42:38.316Z,102011.00
2023-03-27T19:45:05.821Z,102015.72
2023-03-27T19:47:32.719Z,102022.44
2023-03-27T19:49:59.685Z,102014.06
2023-03-27T19:52:32.942Z,102021.59
2023-03-27T19:54:59.692Z,102018.22
2023-03-27T19:57:26.685Z,102016.38
2023-03-27T19:59:53.503Z,102033.75
2023-03-27T20:02:20.953Z,102023.38
2023-03-27T20:04:49.131Z,102020.00
2023-03-27T20:07:15.925Z,102030.22
2023-03-27T20:09:42.650Z,102024.03
2023-03-27T20:12:11.282Z,102026.19
2023-03-27T20:14:38.145Z,102027.38
2023-03-27T20:17:07.933Z,102032.91
2023-03-27T20:19:46.212Z,102031.25
2023-03-27T20:22:13.002Z,102031.72
2023-03-27T20:24:40.312Z,102027.25
2023-03-27T20:27:07.199Z,102025.34
2023-03-27T20:29:34.002Z,102032.72
2023-03-27T20:32:00.866Z,102046.97
2023-03-27T20:34:27.755Z,102052.53
2023-03-27T20:36:54.837Z,102035.63
2023-03-27T20:39:49.932Z,102041.16
2023-03-27T20:42:23.107Z,102047.03
2023-03-27T20:44:58.319Z,102059.09
2023-03-27T20:47:25.394Z,102070.78
2023-03-27T20:49:52.201Z,102064.09
2023-03-27T20:52:19.664Z,102065.78
2023-03-27T20:54:47.934Z,102069.13
2023-03-27T20:57:17.017Z,102073.50
2023-03-27T20:59:46.169Z,102075.53
2023-03-27T21:02:17.689Z,102077.19
2023-03-27T21:04:46.759Z,102082.72
2023-03-27T21:07:15.982Z,102082.53
2023-03-27T21:09:45.338Z,102094.47
2023-03-27T21:12:12.254Z,102091.81
2023-03-27T21:14:39.251Z,102101.00
2023-03-27T21:17:06.018Z,102101.16
2023-03-27T21:19:32.883Z,102099.28
2023-03-27T21:21:59.664Z,102101.59
2023-03-27T21:24:27.093Z,102109.28
2023-03-27T21:26:53.944Z,102105.28
2023-03-27T21:29:20.982Z,102109.97
2023-03-27T21:31:47.865Z,102101.94
2023-03-27T21:34:14.653Z,102100.75
2023-03-27T21:36:41.890Z,102104.97
2023-03-27T21:39:10.019Z,102104.63
2023-03-27T21:41:36.918Z,102106.63
2023-03-27T21:44:03.780Z,102110.31
2023-03-27T21:46:30.720Z,102109.47
2023-03-27T21:48:57.467Z,102105.97
2023-03-27T21:51:24.263Z,102113.81
2023-03-27T21:53:51.080Z,102115.19
2023-03-27T21:56:17.798Z,102113.66
2023-03-27T21:58:44.502Z,102111.97
2023-03-27T22:01:12.263Z,102115.84
2023-03-27T22:03:39.099Z,102115.69
2023-03-27T22:06:12.419Z,102122.69
2023-03-27T22:08:41.526Z,102125.53
2023-03-27T22:11:09.214Z,102128.03
2023-03-27T22:13:37.300Z,102126.56
2023-03-27T22:16:18.052Z,102132.25
2023-03-27T22:18:45.107Z,102137.44
2023-03-27T22:21:23.843Z,102128.41
2023-03-27T22:23:51.938Z,102136.25
2023-03-27T22:26:20.468Z,102126.72
2023-03-27T22:28:47.431Z,102130.06
2023-03-27T22:31:14.540Z,102137.44
2023-03-27T22:33:41.688Z,102144.28
2023-03-27T22:36:11.071Z,102137.28
2023-03-27T22:38:38.333Z,102137.28
2023-03-27T22:41:06.953Z,102143.13
2023-03-27T22:43:33.766Z,102141.47
2023-03-27T22:46:16.532Z,102145.81
2023-03-27T22:48:43.723Z,102139.81
2023-03-27T22:51:12.240Z,102138.47
2023-03-27T22:53:39.742Z,102140.81
2023-03-27T22:56:07.579Z,102145.34
2023-03-27T22:58:34.462Z,102151.69
2023-03-27T23:01:01.505Z,102151.69
2023-03-27T23:03:28.508Z,102148.50
2023-03-27T23:05:55.884Z,102153.88
2023-03-27T23:08:24.638Z,102159.56
2023-03-27T23:11:02.644Z,102162.06
2023-03-27T23:13:31.346Z,102167.25
2023-03-27T23:15:58.737Z,102164.56
2023-03-27T23:18:25.990Z,102160.22
2023-03-27T23:20:58.360Z,102161.25
2023-03-27T23:23:26.724Z,102161.44
2023-03-27T23:25:54.615Z,102163.25
2023-03-27T23:28:22.113Z,102161.56
2023-03-27T23:31:03.377Z,102169.78
2023-03-27T23:33:35.367Z,102171.13
2023-03-27T23:36:03.963Z,102171.97
2023-03-27T23:38:30.809Z,102168.13
2023-03-27T23:40:59.001Z,102173.81
2023-03-27T23:43:27.726Z,102176.81
2023-03-27T23:45:55.951Z,102177.34
2023-03-27T23:48:23.494Z,102180.84
2023-03-27T23:50:51.896Z,102180.00
2023-03-27T23:53:20.816Z,102186.34
2023-03-27T23:55:48.020Z,102182.66
2023-03-27T23:58:15.230Z,102178.66
